Terminal Aerodrome Forecast
Issued by NWS

Home | Current Version | Previous Version | Text Only | Print | Product List | Glossary On
Versions: 1 2 3 4 5 6 7 8 9 10 11 12 13
000
FTUS46 KSEW 171100
TAFCLM
TAF
KCLM 171120Z 1712/1812 24005KT P6SM SCT090 BKN150 OVC250
     FM171900 VRB04KT P6SM VCSH SCT050 OVC100
     FM181100 VRB04KT P6SM VCSH BKN050 OVC090=

USA.gov is the U.S. government's official web portal to all federal, state and local government web resources and services.